createdAt,value
2023-03-26T00:01:41.832Z,100437.50
2023-03-26T00:04:10.770Z,100441.19
2023-03-26T00:06:40.047Z,100440.25
2023-03-26T00:09:10.177Z,100451.88
2023-03-26T00:11:38.809Z,100448.59
2023-03-26T00:14:07.021Z,100453.75
2023-03-26T00:16:35.896Z,100448.59
2023-03-26T00:19:04.365Z,100441.53
2023-03-26T00:21:33.071Z,100441.53
2023-03-26T00:24:07.864Z,100438.78
2023-03-26T00:26:41.351Z,100445.94
2023-03-26T00:29:10.747Z,100450.31
2023-03-26T00:31:46.716Z,100460.13
2023-03-26T00:34:18.813Z,100450.56
2023-03-26T00:36:47.569Z,100462.03
2023-03-26T00:39:18.140Z,100453.31
2023-03-26T00:41:46.609Z,100448.75
2023-03-26T00:44:14.676Z,100442.66
2023-03-26T00:46:43.128Z,100451.44
2023-03-26T00:49:14.966Z,100443.59
2023-03-26T00:51:43.645Z,100439.97
2023-03-26T00:54:13.116Z,100441.88
2023-03-26T00:56:42.087Z,100441.88
2023-03-26T00:59:10.228Z,100433.78
2023-03-26T01:01:40.307Z,100416.91
2023-03-26T01:04:34.947Z,100405.50
2023-03-26T01:07:17.297Z,100402.81
2023-03-26T01:09:50.624Z,100393.09
2023-03-26T01:12:22.502Z,100395.94
2023-03-26T01:14:52.903Z,100404.88
2023-03-26T01:17:22.517Z,100397.84
2023-03-26T01:20:15.495Z,100410.13
2023-03-26T01:22:50.157Z,100408.50
2023-03-26T01:25:18.635Z,100407.56
2023-03-26T01:27:55.024Z,100404.97
2023-03-26T01:30:27.869Z,100400.50
2023-03-26T01:33:30.250Z,100399.56
2023-03-26T01:36:17.912Z,100392.50
2023-03-26T01:38:54.826Z,100386.28
2023-03-26T01:41:46.079Z,100377.44
2023-03-26T01:44:28.143Z,100373.81
2023-03-26T01:46:57.101Z,100356.25
2023-03-26T01:49:28.614Z,100358.06
2023-03-26T01:51:58.258Z,100366.06
2023-03-26T01:54:30.492Z,100371.31
2023-03-26T01:57:11.005Z,100360.66
2023-03-26T01:59:39.334Z,100350.16
2023-03-26T02:02:14.515Z,100353.69
2023-03-26T02:05:24.533Z,100355.47
2023-03-26T02:08:21.290Z,100366.16
2023-03-26T02:10:58.231Z,100366.16
2023-03-26T02:13:26.875Z,100366.16
2023-03-26T02:16:04.129Z,100365.28
2023-03-26T02:18:41.500Z,100358.31
2023-03-26T02:21:13.013Z,100369.00
2023-03-26T02:23:47.285Z,100373.38
2023-03-26T02:26:19.020Z,100377.00
2023-03-26T02:29:02.093Z,100398.34
2023-03-26T02:31:30.846Z,100392.34
2023-03-26T02:33:59.262Z,100406.34
2023-03-26T02:36:30.714Z,100405.47
2023-03-26T02:39:02.159Z,100403.88
2023-03-26T02:41:34.860Z,100405.59
2023-03-26T02:44:10.055Z,100405.59
2023-03-26T02:47:10.974Z,100402.16
2023-03-26T02:49:42.063Z,100394.06
2023-03-26T02:52:11.210Z,100396.81
2023-03-26T02:54:39.362Z,100404.81
2023-03-26T02:57:37.110Z,100405.78
2023-03-26T03:00:23.452Z,100397.78
2023-03-26T03:03:28.023Z,100388.03
2023-03-26T03:06:19.356Z,100388.91
2023-03-26T03:08:54.182Z,100381.00
2023-03-26T03:11:38.884Z,100385.47
2023-03-26T03:14:07.780Z,100378.31
2023-03-26T03:16:36.669Z,100371.19
2023-03-26T03:19:08.393Z,100380.13
2023-03-26T03:21:39.300Z,100372.22
2023-03-26T03:24:11.984Z,100380.22
2023-03-26T03:26:50.665Z,100380.13
2023-03-26T03:29:33.212Z,100381.94
2023-03-26T03:32:23.018Z,100373.94
2023-03-26T03:34:54.230Z,100365.94
2023-03-26T03:37:23.646Z,100351.03
2023-03-26T03:39:55.596Z,100349.31
2023-03-26T03:42:28.014Z,100363.50
2023-03-26T03:45:00.680Z,100376.00
2023-03-26T03:48:04.757Z,100382.09
2023-03-26T03:50:46.936Z,100379.59
2023-03-26T03:53:26.485Z,100369.09
2023-03-26T03:55:57.435Z,100372.53
2023-03-26T03:58:37.262Z,100378.75
2023-03-26T04:01:13.756Z,100367.22
2023-03-26T04:03:57.002Z,100375.22
2023-03-26T04:06:31.512Z,100384.94
2023-03-26T04:08:59.678Z,100391.13
2023-03-26T04:11:28.223Z,100387.69
2023-03-26T04:14:19.314Z,100384.38
2023-03-26T04:17:10.434Z,100381.50
2023-03-26T04:19:44.280Z,100377.19
2023-03-26T04:22:15.060Z,100362.03
2023-03-26T04:24:57.064Z,100375.38
2023-03-26T04:27:28.809Z,100359.66
2023-03-26T04:30:07.035Z,100371.03
2023-03-26T04:32:38.533Z,100370.25
2023-03-26T04:35:07.035Z,100375.59
2023-03-26T04:37:40.481Z,100365.88
2023-03-26T04:40:23.151Z,100358.81
2023-03-26T04:43:00.324Z,100366.81
2023-03-26T04:45:48.426Z,100365.94
2023-03-26T04:48:20.627Z,100365.09
2023-03-26T04:50:49.706Z,100363.28
2023-03-26T04:53:22.197Z,100373.16
2023-03-26T04:56:33.246Z,100382.03
2023-03-26T04:59:26.259Z,100391.91
2023-03-26T05:01:58.216Z,100389.25
2023-03-26T05:04:34.224Z,100382.19
2023-03-26T05:07:03.712Z,100388.41
2023-03-26T05:09:38.565Z,100391.16
2023-03-26T05:12:16.730Z,100387.69
2023-03-26T05:14:53.568Z,100383.16
2023-03-26T05:17:41.835Z,100378.75
2023-03-26T05:20:20.972Z,100383.22
2023-03-26T05:22:50.816Z,100376.09
2023-03-26T05:25:31.757Z,100369.97
2023-03-26T05:28:02.297Z,100363.88
2023-03-26T05:30:43.833Z,100366.38
2023-03-26T05:33:12.365Z,100369.97
2023-03-26T05:36:05.697Z,100374.38
2023-03-26T05:38:34.524Z,100375.31
2023-03-26T05:41:07.693Z,100361.97
2023-03-26T05:43:38.276Z,100364.66
2023-03-26T05:46:22.223Z,100367.31
2023-03-26T05:48:52.257Z,100369.97
2023-03-26T05:51:23.730Z,100361.91
2023-03-26T05:54:10.791Z,100364.66
2023-03-26T05:56:57.941Z,100371.78
2023-03-26T05:59:45.157Z,100367.47
2023-03-26T06:02:32.317Z,100373.59
2023-03-26T06:05:19.428Z,100370.75
2023-03-26T06:08:14.320Z,100379.69
2023-03-26T06:10:53.724Z,100386.84
2023-03-26T06:13:23.586Z,100372.66
2023-03-26T06:15:53.994Z,100380.66
2023-03-26T06:18:41.701Z,100385.81
2023-03-26T06:21:29.514Z,100386.59
2023-03-26T06:24:14.334Z,100382.19
2023-03-26T06:27:00.918Z,100382.38
2023-03-26T06:29:59.017Z,100373.41
2023-03-26T06:32:38.691Z,100368.16
2023-03-26T06:35:19.575Z,100368.09
2023-03-26T06:37:48.009Z,100363.44
2023-03-26T06:40:17.170Z,100356.31
2023-03-26T06:43:07.991Z,100353.56
2023-03-26T06:46:04.115Z,100356.22
2023-03-26T06:48:51.955Z,100363.44
2023-03-26T06:51:32.431Z,100365.16
2023-03-26T06:54:09.609Z,100362.41
2023-03-26T06:57:07.421Z,100357.09
2023-03-26T06:59:54.249Z,100350.03
2023-03-26T07:02:41.233Z,100355.28
2023-03-26T07:05:27.965Z,100346.41
2023-03-26T07:08:15.320Z,100348.13
2023-03-26T07:11:02.120Z,100341.09
2023-03-26T07:13:56.860Z,100345.47
2023-03-26T07:16:48.669Z,100332.31
2023-03-26T07:19:35.962Z,100315.28
2023-03-26T07:22:04.801Z,100317.84
2023-03-26T07:24:54.221Z,100324.06
2023-03-26T07:27:43.919Z,100320.34
2023-03-26T07:30:22.347Z,100312.53
2023-03-26T07:33:36.812Z,100302.81
2023-03-26T07:36:31.222Z,100298.41
2023-03-26T07:39:27.324Z,100291.00
2023-03-26T07:42:51.648Z,100280.53
2023-03-26T07:45:43.919Z,100287.56
2023-03-26T07:48:42.126Z,100273.09
2023-03-26T07:51:18.931Z,100265.00
2023-03-26T07:53:54.270Z,100261.38
2023-03-26T07:57:12.010Z,100251.75
2023-03-26T08:00:22.434Z,100256.91
2023-03-26T08:03:32.291Z,100239.19
2023-03-26T08:06:26.487Z,100233.66
2023-03-26T08:09:08.071Z,100227.22
2023-03-26T08:12:27.584Z,100225.94
2023-03-26T08:15:19.966Z,100231.94
2023-03-26T08:18:16.532Z,100223.00
2023-03-26T08:20:54.670Z,100217.66
2023-03-26T08:23:50.694Z,100208.03
2023-03-26T08:26:28.205Z,100215.94
2023-03-26T08:29:04.585Z,100215.09
2023-03-26T08:31:39.430Z,100219.38
2023-03-26T08:34:12.313Z,100216.63
2023-03-26T08:36:44.707Z,100214.91
2023-03-26T08:39:14.445Z,100219.38
2023-03-26T08:41:45.972Z,100206.13
2023-03-26T08:44:26.106Z,100202.69
2023-03-26T08:47:36.794Z,100178.78
2023-03-26T08:50:32.122Z,100192.72
2023-03-26T08:53:39.028Z,100188.16
2023-03-26T08:56:32.485Z,100184.53
2023-03-26T08:59:38.027Z,100180.16
2023-03-26T09:02:21.568Z,100165.84
2023-03-26T09:05:25.570Z,100149.66
2023-03-26T09:08:24.935Z,100147.88
2023-03-26T09:11:20.610Z,100133.56
2023-03-26T09:14:10.707Z,100131.84
2023-03-26T09:16:53.995Z,100123.75
2023-03-26T09:19:25.157Z,100130.22
2023-03-26T09:22:15.049Z,100131.28
2023-03-26T09:25:11.712Z,100127.66
2023-03-26T09:27:58.741Z,100110.78
2023-03-26T09:30:42.629Z,100120.16
2023-03-26T09:33:22.302Z,100120.97
2023-03-26T09:36:16.890Z,100120.88
2023-03-26T09:38:46.524Z,100126.22
2023-03-26T09:41:20.884Z,100132.72
2023-03-26T09:44:22.341Z,100131.28
2023-03-26T09:47:32.507Z,100110.97
2023-03-26T09:50:29.902Z,100114.59
2023-03-26T09:53:09.481Z,100118.88
2023-03-26T09:55:53.064Z,100114.59
2023-03-26T09:58:57.181Z,100112.88
2023-03-26T10:01:25.957Z,100113.47
2023-03-26T10:04:12.791Z,100114.59
2023-03-26T10:07:17.837Z,100105.03
2023-03-26T10:10:16.636Z,100121.78
2023-03-26T10:12:54.683Z,100125.03
2023-03-26T10:15:33.019Z,100113.53
2023-03-26T10:18:27.638Z,100121.22
2023-03-26T10:21:28.381Z,100095.41
2023-03-26T10:24:12.223Z,100091.34
2023-03-26T10:27:11.002Z,100085.59
2023-03-26T10:30:04.437Z,100080.88
2023-03-26T10:33:05.718Z,100082.66
2023-03-26T10:36:12.457Z,100083.53
2023-03-26T10:39:12.007Z,100075.16
2023-03-26T10:42:22.219Z,100069.63
2023-03-26T10:45:08.137Z,100074.38
2023-03-26T10:48:13.499Z,100077.56
2023-03-26T10:51:10.281Z,100066.72
2023-03-26T10:53:48.909Z,100046.97
2023-03-26T10:56:32.613Z,100049.72
2023-03-26T10:59:06.711Z,100055.53
2023-03-26T11:01:56.446Z,100057.13
2023-03-26T11:04:40.886Z,100049.91
2023-03-26T11:07:16.988Z,100048.69
2023-03-26T11:10:11.708Z,100043.25
2023-03-26T11:12:57.555Z,100048.88
2023-03-26T11:15:36.635Z,100040.69
2023-03-26T11:18:17.153Z,100035.44
2023-03-26T11:21:19.754Z,100040.69
2023-03-26T11:24:05.416Z,100038.97
2023-03-26T11:26:47.002Z,100030.38
2023-03-26T11:29:46.998Z,100043.53
2023-03-26T11:32:23.199Z,100015.81
2023-03-26T11:35:04.362Z,99998.00
2023-03-26T11:37:36.169Z,99991.72
2023-03-26T11:40:21.689Z,99990.66
2023-03-26T11:42:54.996Z,100002.00
2023-03-26T11:45:30.089Z,100003.91
2023-03-26T11:48:19.623Z,100003.72
2023-03-26T11:50:52.951Z,99994.34
2023-03-26T11:53:26.584Z,99999.88
2023-03-26T11:56:30.159Z,100000.09
2023-03-26T11:59:48.887Z,99987.91
2023-03-26T12:02:35.946Z,99976.38
2023-03-26T12:05:18.594Z,99962.38
2023-03-26T12:07:49.905Z,99958.56
2023-03-26T12:10:22.652Z,99946.94
2023-03-26T12:12:57.718Z,99941.78
2023-03-26T12:15:26.832Z,99921.41
2023-03-26T12:17:58.231Z,99916.16
2023-03-26T12:20:26.565Z,99922.38
2023-03-26T12:23:00.736Z,99920.47
2023-03-26T12:25:39.147Z,99916.06
2023-03-26T12:28:14.270Z,99914.47
2023-03-26T12:30:55.161Z,99914.19
2023-03-26T12:33:29.812Z,99909.91
2023-03-26T12:35:58.615Z,99903.72
2023-03-26T12:38:36.117Z,99904.59
2023-03-26T12:44:44.759Z,99903.91
2023-03-26T12:44:55.537Z,99894.97
2023-03-26T12:47:59.789Z,99881.91
2023-03-26T12:50:14.944Z,99866.13
2023-03-26T12:53:19.670Z,99870.31
2023-03-26T12:56:01.659Z,99863.34
2023-03-26T12:58:55.355Z,99860.69
2023-03-26T13:02:07.509Z,99844.16
2023-03-26T13:05:05.676Z,99837.09
2023-03-26T13:07:44.077Z,99831.78
2023-03-26T13:10:30.789Z,99817.50
2023-03-26T13:13:18.112Z,99821.09
2023-03-26T13:15:52.884Z,99819.41
2023-03-26T13:18:33.246Z,99823.03
2023-03-26T13:21:25.237Z,99815.38
2023-03-26T13:24:18.257Z,99805.47
2023-03-26T13:26:53.992Z,99802.44
2023-03-26T13:29:34.595Z,99799.22
2023-03-26T13:32:24.695Z,99792.84
2023-03-26T13:35:30.187Z,99777.91
2023-03-26T13:38:13.698Z,99782.91
2023-03-26T13:40:42.646Z,99774.06
2023-03-26T13:43:19.817Z,99768.09
2023-03-26T13:45:58.288Z,99768.19
2023-03-26T13:48:29.448Z,99768.19
2023-03-26T13:51:05.250Z,99759.06
2023-03-26T13:53:42.160Z,99747.56
2023-03-26T13:56:16.282Z,99737.00
2023-03-26T13:58:52.407Z,99734.13
2023-03-26T14:01:34.275Z,99719.19
2023-03-26T14:04:10.973Z,99716.44
2023-03-26T14:06:47.884Z,99703.09
2023-03-26T14:09:23.231Z,99695.13
2023-03-26T14:11:58.151Z,99685.41
2023-03-26T14:14:29.260Z,99674.22
2023-03-26T14:17:02.662Z,99676.88
2023-03-26T14:20:08.398Z,99668.69
2023-03-26T14:22:52.318Z,99664.00
2023-03-26T14:25:57.293Z,99661.31
2023-03-26T14:28:44.337Z,99654.19
2023-03-26T14:31:24.659Z,99641.81
2023-03-26T14:34:12.334Z,99638.41
2023-03-26T14:36:53.917Z,99639.25
2023-03-26T14:39:35.127Z,99631.41
2023-03-26T14:42:12.798Z,99631.59
2023-03-26T14:45:01.578Z,99627.03
2023-03-26T14:47:31.033Z,99640.69
2023-03-26T14:50:04.729Z,99624.91
2023-03-26T14:52:50.301Z,99625.97
2023-03-26T14:55:49.808Z,99609.03
2023-03-26T14:58:43.030Z,99614.44
2023-03-26T15:01:23.135Z,99607.03
2023-03-26T15:04:09.963Z,99602.34
2023-03-26T15:07:00.605Z,99596.78
2023-03-26T15:09:49.625Z,99592.97
2023-03-26T15:12:42.635Z,99590.00
2023-03-26T15:15:28.007Z,99586.81
2023-03-26T15:18:23.761Z,99582.03
2023-03-26T15:21:29.529Z,99578.31
2023-03-26T15:24:22.214Z,99575.75
2023-03-26T15:27:14.889Z,99575.34
2023-03-26T15:30:05.765Z,99563.84
2023-03-26T15:33:05.482Z,99555.94
2023-03-26T15:36:18.749Z,99562.88
2023-03-26T15:39:20.024Z,99559.25
2023-03-26T15:42:22.611Z,99557.88
2023-03-26T15:48:11.964Z,99562.22
2023-03-26T15:50:46.775Z,99569.06
2023-03-26T15:53:50.882Z,99572.59
2023-03-26T15:56:18.960Z,99577.81
2023-03-26T15:58:48.352Z,99578.66
2023-03-26T16:01:37.708Z,99566.59
2023-03-26T16:04:26.742Z,99585.81
2023-03-26T16:07:04.326Z,99599.13
2023-03-26T16:10:04.725Z,99593.06
2023-03-26T16:12:46.360Z,99565.34
2023-03-26T16:15:22.401Z,99573.22
2023-03-26T16:18:06.129Z,99583.88
2023-03-26T16:20:44.215Z,99580.03
2023-03-26T16:23:47.314Z,99585.56
2023-03-26T16:26:31.742Z,99590.28
2023-03-26T16:29:12.017Z,99599.00
2023-03-26T16:32:08.046Z,99589.19
2023-03-26T16:34:54.939Z,99571.31
2023-03-26T16:37:33.903Z,99585.38
2023-03-26T16:40:17.466Z,99587.28
2023-03-26T16:43:04.006Z,99590.91
2023-03-26T16:45:37.316Z,99597.75
2023-03-26T16:48:21.913Z,99603.09
2023-03-26T16:51:06.417Z,99580.03
2023-03-26T16:53:49.978Z,99592.22
2023-03-26T16:56:22.832Z,99593.06
2023-03-26T16:58:56.259Z,99590.34
2023-03-26T17:01:41.577Z,99574.34
2023-03-26T17:04:17.340Z,99519.31
2023-03-26T17:07:04.393Z,99502.38
2023-03-26T17:09:36.332Z,99526.34
2023-03-26T17:12:48.950Z,99527.00
2023-03-26T17:15:26.715Z,99520.63
2023-03-26T17:18:05.447Z,99508.97
2023-03-26T17:20:56.113Z,99495.63
2023-03-26T17:23:55.889Z,99490.09
2023-03-26T17:26:38.648Z,99473.13
2023-03-26T17:29:30.094Z,99461.50
2023-03-26T17:32:05.005Z,99456.19
2023-03-26T17:34:38.946Z,99459.06
2023-03-26T17:37:17.679Z,99472.63
2023-03-26T17:39:48.567Z,99471.88
2023-03-26T17:42:19.332Z,99456.84
2023-03-26T17:44:56.685Z,99439.34
2023-03-26T17:48:00.656Z,99427.53
2023-03-26T17:50:50.820Z,99433.81
2023-03-26T17:53:29.165Z,99440.09
2023-03-26T17:56:03.441Z,99448.94
2023-03-26T17:58:44.103Z,99447.25
2023-03-26T18:01:12.642Z,99457.06
2023-03-26T18:03:53.032Z,99455.34
2023-03-26T18:06:59.803Z,99460.69
2023-03-26T18:09:57.348Z,99474.84
2023-03-26T18:12:44.105Z,99478.56
2023-03-26T18:15:35.023Z,99490.06
2023-03-26T18:18:20.033Z,99491.03
2023-03-26T18:20:50.132Z,99506.00
2023-03-26T18:23:24.269Z,99489.91
2023-03-26T18:25:58.225Z,99462.38
2023-03-26T18:28:31.418Z,99442.94
2023-03-26T18:31:09.916Z,99424.22
2023-03-26T18:33:46.486Z,99425.91
2023-03-26T18:36:16.892Z,99439.88
2023-03-26T18:38:47.044Z,99436.25
2023-03-26T18:41:30.654Z,99413.00
2023-03-26T18:44:06.836Z,99434.22
2023-03-26T18:46:35.899Z,99433.34
2023-03-26T18:49:04.714Z,99429.97
2023-03-26T18:51:38.322Z,99429.13
2023-03-26T18:54:17.685Z,99441.91
2023-03-26T18:56:50.397Z,99449.06
2023-03-26T18:59:29.249Z,99450.94
2023-03-26T19:02:05.453Z,99463.63
2023-03-26T19:04:36.247Z,99461.91
2023-03-26T19:07:06.979Z,99467.34
2023-03-26T19:09:35.389Z,99466.41
2023-03-26T19:12:18.001Z,99462.03
2023-03-26T19:15:17.944Z,99467.25
2023-03-26T19:17:49.386Z,99491.03
2023-03-26T19:20:26.720Z,99495.34
2023-03-26T19:22:57.173Z,99497.22
2023-03-26T19:25:40.469Z,99528.91
2023-03-26T19:28:28.530Z,99528.91
2023-03-26T19:31:27.578Z,99521.03
2023-03-26T19:34:21.843Z,99512.34
2023-03-26T19:37:01.954Z,99515.03
2023-03-26T19:39:42.846Z,99516.72
2023-03-26T19:42:19.161Z,99511.59
2023-03-26T19:44:48.364Z,99506.47
2023-03-26T19:47:24.918Z,99510.94
2023-03-26T19:50:03.317Z,99501.16
2023-03-26T19:52:38.549Z,99489.63
2023-03-26T19:55:10.592Z,99473.03
2023-03-26T19:57:38.982Z,99476.75
2023-03-26T20:00:13.875Z,99481.88
2023-03-26T20:02:43.823Z,99497.00
2023-03-26T20:05:26.717Z,99497.13
2023-03-26T20:07:57.952Z,99498.81
2023-03-26T20:10:27.847Z,99482.84
2023-03-26T20:12:56.287Z,99472.38
2023-03-26T20:15:28.543Z,99467.91
2023-03-26T20:17:57.077Z,99456.38
2023-03-26T20:20:27.816Z,99461.94
2023-03-26T20:22:56.138Z,99463.63
2023-03-26T20:25:31.131Z,99464.38
2023-03-26T20:28:00.357Z,99463.63
2023-03-26T20:30:37.345Z,99443.28
2023-03-26T20:33:13.420Z,99449.47
2023-03-26T20:35:42.982Z,99463.63
2023-03-26T20:38:11.443Z,99474.28
2023-03-26T20:40:40.532Z,99483.25
2023-03-26T20:43:12.431Z,99474.28
2023-03-26T20:45:41.929Z,99468.22
2023-03-26T20:48:13.293Z,99464.78
2023-03-26T20:50:50.426Z,99458.41
2023-03-26T20:53:20.660Z,99457.75
2023-03-26T20:55:51.694Z,99453.38
2023-03-26T20:58:30.796Z,99455.84
2023-03-26T21:01:02.465Z,99453.19
2023-03-26T21:03:31.036Z,99448.06
2023-03-26T21:06:04.383Z,99460.44
2023-03-26T21:08:35.661Z,99457.75
2023-03-26T21:11:06.324Z,99460.44
2023-03-26T21:13:38.558Z,99456.16
2023-03-26T21:16:08.384Z,99450.94
2023-03-26T21:18:37.444Z,99450.81
2023-03-26T21:21:21.343Z,99440.28
2023-03-26T21:23:59.619Z,99433.78
2023-03-26T21:27:04.524Z,99423.97
2023-03-26T21:29:33.048Z,99414.38
2023-03-26T21:32:01.792Z,99414.38
2023-03-26T21:34:33.582Z,99408.09
2023-03-26T21:37:03.032Z,99402.00
2023-03-26T21:39:31.408Z,99394.97
2023-03-26T21:42:05.417Z,99398.59
2023-03-26T21:44:34.535Z,99393.28
2023-03-26T21:47:03.326Z,99390.59
2023-03-26T21:49:31.837Z,99380.81
2023-03-26T21:52:00.649Z,99357.81
2023-03-26T21:54:33.491Z,99357.81
2023-03-26T21:57:13.501Z,99363.34
2023-03-26T21:59:52.666Z,99355.97
2023-03-26T22:02:36.516Z,99348.97
2023-03-26T22:05:13.964Z,99348.97
2023-03-26T22:07:53.837Z,99344.59
2023-03-26T22:10:22.283Z,99337.56
2023-03-26T22:12:51.162Z,99327.88
2023-03-26T22:15:20.179Z,99334.91
2023-03-26T22:17:56.095Z,99327.88
2023-03-26T22:20:25.350Z,99311.88
2023-03-26T22:22:55.593Z,99321.56
2023-03-26T22:25:24.335Z,99319.13
2023-03-26T22:27:52.996Z,99314.75
2023-03-26T22:30:21.236Z,99320.84
2023-03-26T22:32:50.507Z,99314.88
2023-03-26T22:35:19.203Z,99313.06
2023-03-26T22:37:48.009Z,99312.09
2023-03-26T22:40:18.171Z,99307.63
2023-03-26T22:42:46.759Z,99304.09
2023-03-26T22:45:15.022Z,99297.28
2023-03-26T22:47:43.673Z,99301.44
2023-03-26T22:50:11.925Z,99297.19
2023-03-26T22:52:41.301Z,99299.72
2023-03-26T22:55:11.783Z,99299.94
2023-03-26T22:57:41.683Z,99294.63
2023-03-26T23:00:19.765Z,99298.25
2023-03-26T23:02:48.362Z,99303.34
2023-03-26T23:05:17.809Z,99301.75
2023-03-26T23:07:46.615Z,99298.25
2023-03-26T23:10:14.791Z,99298.25
2023-03-26T23:12:43.455Z,99299.19
2023-03-26T23:15:11.903Z,99292.06
2023-03-26T23:17:40.969Z,99292.16
2023-03-26T23:20:15.263Z,99280.56
2023-03-26T23:22:44.712Z,99279.69
2023-03-26T23:25:12.973Z,99273.72
2023-03-26T23:27:41.698Z,99276.94
2023-03-26T23:30:11.191Z,99279.06
2023-03-26T23:32:39.756Z,99272.06
2023-03-26T23:35:08.224Z,99286.09
2023-03-26T23:37:37.213Z,99269.25
2023-03-26T23:40:10.366Z,99270.13
2023-03-26T23:42:39.036Z,99272.06
2023-03-26T23:45:08.755Z,99273.72
2023-03-26T23:47:43.042Z,99279.19
2023-03-26T23:50:11.599Z,99275.69
2023-03-26T23:52:40.136Z,99276.53
2023-03-26T23:55:08.748Z,99280.06
2023-03-26T23:57:37.499Z,99285.69
